Time;durP1;ratioP1;P1;durP2;ratioP2;P2;SDS_P1;SDS_P2;PMS_P1;PMS_P2;Temp;Humidity;BMP_temperature;BMP_pressure;BME280_temperature;BME280_humidity;BME280_pressure;Samples;Min_cycle;Max_cycle;Signal;HPM_P1;HPM_P2
2022/07/04 00:00:20;;;;;;;9.32;3.50;;;16.00;99.90;;;;;;4969977;28;25068;-71
2022/07/04 00:02:47;;;;;;;8.98;3.45;;;16.10;99.90;;;;;;4968164;28;25067;-71
2022/07/04 00:05:14;;;;;;;12.05;3.63;;;16.20;99.90;;;;;;4972917;28;25068;-69
2022/07/04 00:07:41;;;;;;;10.65;3.88;;;16.20;99.90;;;;;;4990728;28;25056;-70
2022/07/04 00:10:08;;;;;;;9.00;3.08;;;16.20;99.90;;;;;;4987358;28;25090;-71
2022/07/04 00:12:34;;;;;;;9.73;3.40;;;16.10;99.90;;;;;;4997578;28;25088;-68
2022/07/04 00:15:01;;;;;;;7.15;3.00;;;16.10;99.90;;;;;;4996397;28;25060;-70
2022/07/04 00:17:26;;;;;;;7.97;2.67;;;16.10;99.90;;;;;;4977754;28;25097;-71
2022/07/04 00:19:52;;;;;;;8.45;2.97;;;16.00;99.90;;;;;;4979206;28;25090;-70
2022/07/04 00:22:18;;;;;;;4.95;2.35;;;16.00;99.90;;;;;;4978769;28;25076;-71
2022/07/04 00:24:43;;;;;;;6.75;2.63;;;16.10;99.90;;;;;;4983617;28;25125;-71
2022/07/04 00:27:09;;;;;;;6.07;2.45;;;16.00;99.90;;;;;;4970624;28;25056;-72
2022/07/04 00:29:34;;;;;;;7.35;2.47;;;16.00;99.90;;;;;;4982271;28;25110;-70
2022/07/04 00:32:01;;;;;;;5.38;2.30;;;16.00;99.90;;;;;;4971484;28;25061;-72
2022/07/04 00:34:27;;;;;;;11.40;2.80;;;16.00;99.90;;;;;;4973523;28;25074;-71
2022/07/04 00:36:53;;;;;;;7.75;2.28;;;16.00;99.90;;;;;;4975978;28;25072;-72
2022/07/04 00:39:19;;;;;;;10.93;2.67;;;15.90;99.90;;;;;;4976760;28;25062;-71
2022/07/04 00:41:44;;;;;;;11.65;2.20;;;16.00;99.90;;;;;;4975314;28;25080;-72
2022/07/04 00:44:11;;;;;;;7.45;2.38;;;15.90;99.90;;;;;;4968136;28;25076;-71
2022/07/04 00:46:37;;;;;;;8.60;2.25;;;16.00;99.90;;;;;;4975930;28;25072;-72
2022/07/04 00:49:04;;;;;;;7.30;3.42;;;16.00;99.90;;;;;;4974063;28;25069;-73
2022/07/04 00:51:30;;;;;;;6.35;2.33;;;16.00;99.90;;;;;;4982563;28;25076;-70
2022/07/04 00:53:56;;;;;;;5.28;1.95;;;16.00;99.90;;;;;;4976469;28;25121;-72
2022/07/04 00:56:23;;;;;;;6.85;2.40;;;16.00;99.90;;;;;;4978269;28;25113;-69
2022/07/04 00:58:50;;;;;;;12.95;2.40;;;16.00;99.90;;;;;;4983021;28;25068;-71
2022/07/04 01:01:20;;;;;;;8.07;2.42;;;16.10;99.90;;;;;;4979457;28;25086;-72
2022/07/04 01:03:46;;;;;;;6.47;2.90;;;16.00;99.90;;;;;;4982119;28;25140;-71
2022/07/04 01:06:14;;;;;;;6.60;2.45;;;16.00;99.90;;;;;;4985580;28;25055;-70
2022/07/04 01:08:41;;;;;;;7.85;2.55;;;16.00;99.90;;;;;;4977089;28;25067;-70
2022/07/04 01:11:07;;;;;;;8.85;2.75;;;16.00;99.90;;;;;;4983789;28;25112;-69
2022/07/04 01:13:32;;;;;;;6.97;2.75;;;16.00;99.90;;;;;;4977295;28;25043;-72
2022/07/04 01:15:58;;;;;;;9.30;2.90;;;16.00;99.90;;;;;;4978440;28;25119;-71
2022/07/04 01:18:24;;;;;;;8.27;3.05;;;16.00;99.90;;;;;;4975072;28;25069;-72
2022/07/04 01:20:49;;;;;;;7.68;2.75;;;16.10;99.90;;;;;;4982461;28;25138;-70
2022/07/04 01:23:16;;;;;;;10.18;2.70;;;16.00;99.90;;;;;;4978927;28;25064;-71
2022/07/04 01:25:42;;;;;;;11.00;2.58;;;16.00;99.90;;;;;;4978373;28;25122;-70
2022/07/04 01:28:08;;;;;;;8.05;3.22;;;16.00;99.90;;;;;;4976635;28;25127;-71
2022/07/04 01:30:35;;;;;;;7.13;2.63;;;16.10;99.90;;;;;;4977304;28;25076;-71
2022/07/04 01:33:01;;;;;;;8.20;3.47;;;16.10;99.90;;;;;;4981429;28;25115;-71
2022/07/04 01:35:27;;;;;;;4.80;3.10;;;16.10;99.90;;;;;;4976682;28;25068;-71
2022/07/04 01:37:52;;;;;;;9.88;3.40;;;16.10;99.90;;;;;;4979432;28;25092;-71
2022/07/04 01:40:19;;;;;;;11.82;4.00;;;16.10;99.90;;;;;;4979252;28;25083;-70
2022/07/04 01:42:45;;;;;;;7.03;3.35;;;16.10;99.90;;;;;;4979134;28;25111;-70
2022/07/04 01:45:11;;;;;;;8.25;3.75;;;16.10;99.90;;;;;;4976336;28;25076;-71
2022/07/04 01:47:37;;;;;;;8.68;3.30;;;16.10;99.90;;;;;;4976679;28;25080;-71
2022/07/04 01:50:08;;;;;;;11.55;4.25;;;16.10;99.90;;;;;;4979582;28;25067;-71
2022/07/04 01:52:34;;;;;;;9.40;4.22;;;16.10;99.90;;;;;;4956133;28;25070;-71
2022/07/04 01:55:00;;;;;;;14.68;5.65;;;16.20;99.90;;;;;;4972808;28;25058;-73
2022/07/04 01:57:26;;;;;;;9.35;5.20;;;16.10;99.90;;;;;;4975215;28;25072;-71
2022/07/04 02:02:37;;;;;;;9.80;5.38;;;16.10;99.90;;;;;;4964847;28;25056;-70
2022/07/04 02:05:03;;;;;;;10.85;6.43;;;16.20;99.90;;;;;;4971999;28;25073;-70
2022/07/04 02:07:29;;;;;;;12.32;6.15;;;16.10;99.90;;;;;;4971850;28;25093;-69
2022/07/04 02:09:54;;;;;;;12.75;6.25;;;16.10;99.90;;;;;;4968480;28;25100;-70
2022/07/04 02:15:05;;;;;;;11.73;5.78;;;16.10;99.90;;;;;;4971420;28;25081;-71
2022/07/04 02:17:30;;;;;;;11.45;6.22;;;16.00;99.90;;;;;;4974673;28;25143;-71
2022/07/04 02:19:56;;;;;;;13.65;6.07;;;16.10;99.90;;;;;;4958009;28;25066;-72
2022/07/04 02:22:22;;;;;;;15.98;6.82;;;16.00;99.90;;;;;;4972954;28;25095;-71
2022/07/04 02:24:47;;;;;;;10.70;6.47;;;16.00;99.90;;;;;;4976665;28;25062;-69
2022/07/04 02:27:13;;;;;;;17.13;7.28;;;15.90;99.90;;;;;;4989113;28;25090;-72
2022/07/04 02:29:40;;;;;;;12.00;7.03;;;16.00;99.90;;;;;;4970467;28;25089;-73
2022/07/04 02:32:06;;;;;;;15.00;7.28;;;15.90;99.90;;;;;;4976014;28;25071;-71
2022/07/04 02:34:31;;;;;;;12.38;7.70;;;15.90;99.90;;;;;;4968616;28;25069;-71
2022/07/04 02:36:57;;;;;;;16.20;7.40;;;15.90;99.90;;;;;;4978041;28;25079;-69
2022/07/04 02:39:24;;;;;;;15.77;8.02;;;15.90;99.90;;;;;;4976455;28;25073;-71
2022/07/04 02:41:49;;;;;;;11.30;6.50;;;16.00;99.90;;;;;;4985444;28;25082;-72
2022/07/04 02:44:15;;;;;;;10.35;6.45;;;15.90;99.90;;;;;;4978896;28;25170;-71
2022/07/04 02:46:41;;;;;;;9.18;6.85;;;16.00;99.90;;;;;;4976322;28;25061;-72
2022/07/04 02:49:06;;;;;;;11.70;6.45;;;15.90;99.90;;;;;;4985174;28;25072;-70
2022/07/04 02:51:32;;;;;;;11.32;7.05;;;16.00;99.90;;;;;;4989226;28;25059;-71
2022/07/04 02:53:58;;;;;;;18.52;6.00;;;16.00;99.90;;;;;;4983357;28;25073;-70
2022/07/04 02:56:24;;;;;;;9.70;6.05;;;16.00;99.90;;;;;;4988848;28;25074;-68
2022/07/04 02:58:50;;;;;;;12.10;5.75;;;16.00;99.90;;;;;;4972850;28;25076;-70
2022/07/04 03:01:18;;;;;;;15.85;6.47;;;15.90;99.90;;;;;;4971670;28;25063;-71
2022/07/04 03:03:43;;;;;;;13.60;5.65;;;15.80;99.90;;;;;;4973599;28;25087;-70
2022/07/04 03:06:09;;;;;;;8.48;5.82;;;15.80;99.90;;;;;;4971834;28;25132;-72
2022/07/04 03:08:36;;;;;;;9.23;6.53;;;15.90;99.90;;;;;;4973156;28;25087;-73
2022/07/04 03:11:03;;;;;;;12.70;5.28;;;15.90;99.90;;;;;;4972974;28;25059;-71
2022/07/04 03:13:29;;;;;;;13.98;6.15;;;15.90;99.90;;;;;;4966856;28;25060;-70
2022/07/04 03:15:54;;;;;;;10.43;5.18;;;15.90;99.90;;;;;;4984337;28;25077;-71
2022/07/04 03:18:20;;;;;;;12.27;5.10;;;15.90;99.90;;;;;;4976162;28;25067;-71
2022/07/04 03:20:46;;;;;;;17.17;4.75;;;16.00;99.90;;;;;;4977759;28;25099;-72
2022/07/04 03:23:12;;;;;;;9.13;4.68;;;16.00;99.90;;;;;;4974902;28;25052;-72
2022/07/04 03:25:38;;;;;;;9.55;4.30;;;16.00;99.90;;;;;;4981823;28;25063;-71
2022/07/04 03:28:04;;;;;;;13.48;4.57;;;16.10;99.90;;;;;;4979657;28;25142;-69
2022/07/04 03:30:29;;;;;;;9.57;4.72;;;16.10;99.90;;;;;;4973509;28;25056;-70
2022/07/04 03:32:55;;;;;;;13.45;4.50;;;16.00;99.90;;;;;;4974263;28;25109;-71
2022/07/04 03:35:21;;;;;;;9.18;4.38;;;16.20;99.90;;;;;;4968883;28;25075;-71
2022/07/04 03:37:47;;;;;;;10.30;4.00;;;16.20;99.90;;;;;;4980182;28;25067;-71
2022/07/04 03:40:12;;;;;;;10.27;3.67;;;16.30;99.90;;;;;;4973465;28;25131;-71
2022/07/04 03:42:39;;;;;;;9.75;3.97;;;16.30;99.90;;;;;;4969547;28;25072;-72
2022/07/04 03:45:05;;;;;;;11.68;3.90;;;16.40;99.90;;;;;;4975862;28;25096;-71
2022/07/04 03:47:31;;;;;;;10.98;3.72;;;16.30;99.90;;;;;;4973612;28;25095;-71
2022/07/04 03:49:57;;;;;;;12.02;4.32;;;16.30;99.90;;;;;;4973725;28;25101;-70
2022/07/04 03:52:23;;;;;;;12.07;4.18;;;16.30;99.90;;;;;;4967100;28;25086;-70
2022/07/04 03:54:49;;;;;;;9.20;3.72;;;16.40;99.90;;;;;;4974933;28;25047;-70
2022/07/04 03:57:14;;;;;;;12.15;3.58;;;16.50;99.90;;;;;;4972403;28;25077;-70
2022/07/04 03:59:40;;;;;;;11.10;3.80;;;16.50;99.90;;;;;;4976014;28;25100;-72
2022/07/04 04:02:06;;;;;;;8.15;3.30;;;16.50;99.90;;;;;;4966984;28;25129;-71
2022/07/04 04:07:15;;;;;;;10.68;3.35;;;16.40;99.90;;;;;;4967326;28;25059;-71
2022/07/04 04:09:41;;;;;;;9.07;3.85;;;16.50;99.90;;;;;;4964960;28;25151;-71
2022/07/04 04:12:06;;;;;;;9.52;3.47;;;16.50;99.90;;;;;;4968961;28;25100;-72
2022/07/04 04:14:32;;;;;;;12.68;4.03;;;16.50;99.90;;;;;;4971789;28;25053;-70
2022/07/04 04:16:58;;;;;;;13.63;3.95;;;16.60;99.90;;;;;;4972823;28;25106;-72
2022/07/04 04:19:23;;;;;;;11.13;4.00;;;16.60;99.90;;;;;;4965298;28;25067;-71
2022/07/04 04:21:49;;;;;;;12.43;3.70;;;16.60;99.90;;;;;;4971662;28;25155;-72
2022/07/04 04:24:15;;;;;;;13.07;3.40;;;16.60;99.90;;;;;;4971931;28;25077;-70
2022/07/04 04:26:40;;;;;;;8.43;3.08;;;16.60;99.90;;;;;;4964893;28;25053;-70
2022/07/04 04:29:06;;;;;;;14.50;3.33;;;16.70;99.90;;;;;;4971573;28;25124;-71
2022/07/04 04:31:31;;;;;;;10.45;3.58;;;16.70;99.90;;;;;;4967415;28;25064;-71
2022/07/04 04:33:57;;;;;;;8.45;2.97;;;16.70;99.90;;;;;;4966501;28;25062;-71
2022/07/04 04:36:23;;;;;;;10.10;4.32;;;16.60;99.90;;;;;;4969863;28;25135;-72
2022/07/04 04:38:49;;;;;;;9.20;3.03;;;16.50;99.90;;;;;;4972393;28;25066;-69
2022/07/04 04:41:16;;;;;;;13.60;3.42;;;16.60;99.90;;;;;;4968694;28;25069;-70
2022/07/04 04:43:42;;;;;;;10.80;3.08;;;16.60;99.90;;;;;;4969530;28;25117;-73
2022/07/04 04:46:08;;;;;;;9.07;3.50;;;16.70;99.90;;;;;;4968840;28;25120;-71
2022/07/04 04:48:33;;;;;;;10.50;3.47;;;16.70;99.90;;;;;;4970768;28;25094;-70
2022/07/04 04:50:59;;;;;;;7.60;3.58;;;16.70;99.90;;;;;;4986084;28;25070;-70
2022/07/04 04:53:25;;;;;;;9.77;4.22;;;16.60;99.90;;;;;;4970331;28;25077;-71
2022/07/04 04:55:54;;;;;;;11.00;4.07;;;16.60;99.90;;;;;;4972176;28;25055;-69
2022/07/04 04:58:21;;;;;;;10.77;4.13;;;16.60;99.90;;;;;;4969820;28;25095;-71
2022/07/04 05:00:49;;;;;;;11.90;3.50;;;16.70;99.90;;;;;;4971651;28;25140;-72
2022/07/04 05:03:16;;;;;;;8.02;4.03;;;16.70;99.90;;;;;;4968469;28;25082;-74
2022/07/04 05:05:41;;;;;;;9.10;3.97;;;16.70;99.90;;;;;;4971283;28;25118;-69
2022/07/04 05:08:07;;;;;;;10.45;3.47;;;16.70;99.90;;;;;;4971869;28;25080;-69
2022/07/04 05:10:33;;;;;;;9.20;3.63;;;16.60;99.90;;;;;;4975372;28;25060;-71
2022/07/04 05:12:59;;;;;;;11.50;4.20;;;16.70;99.90;;;;;;4980437;28;25086;-73
2022/07/04 05:15:24;;;;;;;14.65;5.00;;;16.70;99.90;;;;;;4969057;28;25060;-70
2022/07/04 05:17:50;;;;;;;7.00;4.05;;;16.80;99.90;;;;;;4980973;28;24894;-72
2022/07/04 05:20:16;;;;;;;14.85;4.90;;;16.90;99.90;;;;;;4968339;28;25089;-70
2022/07/04 05:22:42;;;;;;;8.27;3.78;;;16.90;99.90;;;;;;4971597;28;25077;-70
2022/07/04 05:25:07;;;;;;;11.25;4.53;;;16.90;99.90;;;;;;4977056;28;25073;-71
2022/07/04 05:27:33;;;;;;;11.52;3.97;;;17.00;99.90;;;;;;4978484;28;25129;-74
2022/07/04 05:29:59;;;;;;;8.57;4.13;;;17.20;99.90;;;;;;4979385;28;25067;-71
2022/07/04 05:32:25;;;;;;;10.02;3.90;;;17.30;99.90;;;;;;4967836;28;25157;-70
2022/07/04 05:34:51;;;;;;;13.68;5.00;;;17.40;99.90;;;;;;4980950;28;25063;-71
2022/07/04 05:37:17;;;;;;;15.70;4.40;;;17.50;99.90;;;;;;4985034;28;25056;-75
2022/07/04 05:39:42;;;;;;;13.05;4.93;;;17.60;99.90;;;;;;4992341;28;25075;-74
2022/07/04 05:42:08;;;;;;;13.40;4.82;;;17.70;99.90;;;;;;4972210;28;25079;-71
2022/07/04 05:44:34;;;;;;;18.60;5.20;;;17.80;99.90;;;;;;4974310;28;25065;-69
2022/07/04 05:46:59;;;;;;;15.55;5.40;;;17.80;99.90;;;;;;4985627;28;25112;-70
2022/07/04 05:49:25;;;;;;;9.50;5.30;;;17.60;99.90;;;;;;4972374;28;25145;-71
2022/07/04 05:51:50;;;;;;;13.13;5.22;;;17.50;99.90;;;;;;4974020;28;25101;-73
2022/07/04 05:54:16;;;;;;;14.30;5.07;;;17.60;99.90;;;;;;4979766;28;25106;-73
2022/07/04 05:56:42;;;;;;;11.75;4.38;;;17.70;99.90;;;;;;4969382;28;25132;-70
2022/07/04 05:59:09;;;;;;;13.52;5.45;;;17.80;99.90;;;;;;4972225;28;25155;-70
2022/07/04 06:01:36;;;;;;;9.45;4.82;;;17.60;99.90;;;;;;4974521;28;25105;-70
2022/07/04 06:04:01;;;;;;;11.07;5.63;;;17.50;99.90;;;;;;4972679;28;25065;-70
2022/07/04 06:06:27;;;;;;;12.10;5.85;;;17.50;99.90;;;;;;4980330;28;25077;-73
2022/07/04 06:08:52;;;;;;;11.25;4.35;;;17.60;99.90;;;;;;4974215;28;25097;-73
2022/07/04 06:11:18;;;;;;;13.20;6.22;;;17.60;99.90;;;;;;4972966;28;25127;-71
2022/07/04 06:13:44;;;;;;;15.40;5.25;;;17.60;99.90;;;;;;4970162;28;25100;-73
2022/07/04 06:16:09;;;;;;;12.63;5.30;;;17.70;99.90;;;;;;4967862;28;25131;-71
2022/07/04 06:18:35;;;;;;;9.70;5.07;;;17.70;99.90;;;;;;4966008;28;25064;-71
2022/07/04 06:21:01;;;;;;;12.13;4.93;;;17.90;99.90;;;;;;4966977;28;25075;-71
2022/07/04 06:23:26;;;;;;;16.25;5.47;;;18.30;99.90;;;;;;4970265;28;25055;-71
2022/07/04 06:25:52;;;;;;;11.50;4.85;;;18.20;99.90;;;;;;4978837;28;25141;-72
2022/07/04 06:28:18;;;;;;;13.90;4.90;;;18.30;99.90;;;;;;4966876;28;25059;-71
2022/07/04 06:30:43;;;;;;;15.48;5.53;;;18.60;99.90;;;;;;4964176;28;25081;-69
2022/07/04 06:33:09;;;;;;;14.85;6.07;;;18.60;99.90;;;;;;4970856;28;25062;-71
2022/07/04 06:38:36;;;;;;;13.88;5.22;;;18.70;99.90;;;;;;4941773;28;25078;-71
2022/07/04 06:41:02;;;;;;;11.55;5.32;;;18.90;99.90;;;;;;4962150;28;25141;-70
2022/07/04 06:43:28;;;;;;;12.02;4.97;;;19.00;99.90;;;;;;4967047;28;25131;-71
2022/07/04 06:45:54;;;;;;;10.35;4.35;;;19.40;99.90;;;;;;4966814;28;25096;-71
2022/07/04 06:48:19;;;;;;;11.32;4.75;;;19.70;99.90;;;;;;4978286;28;25080;-69
2022/07/04 06:50:45;;;;;;;11.07;4.57;;;19.90;99.90;;;;;;4974931;28;25063;-71
2022/07/04 06:53:11;;;;;;;13.98;5.00;;;19.90;99.90;;;;;;4972957;28;25070;-72
2022/07/04 06:55:39;;;;;;;19.00;6.32;;;20.30;99.90;;;;;;4968400;28;25082;-69
2022/07/04 06:58:06;;;;;;;15.82;5.85;;;20.10;99.90;;;;;;4964733;28;25069;-72
2022/07/04 07:00:32;;;;;;;12.50;5.35;;;19.70;99.90;;;;;;4963751;28;25068;-70
2022/07/04 07:02:59;;;;;;;20.60;6.90;;;19.80;99.90;;;;;;4966337;28;25099;-70
2022/07/04 07:05:26;;;;;;;13.57;5.13;;;19.90;99.90;;;;;;4965350;28;25064;-70
2022/07/04 07:07:51;;;;;;;13.68;5.55;;;20.10;99.90;;;;;;4970974;28;25055;-69
2022/07/04 07:10:17;;;;;;;7.65;4.55;;;20.10;99.90;;;;;;4964737;28;25085;-70
2022/07/04 07:12:43;;;;;;;16.00;5.88;;;20.10;99.90;;;;;;4958021;28;25052;-69
2022/07/04 07:15:09;;;;;;;11.27;4.65;;;20.30;99.90;;;;;;4960601;28;25114;-70
2022/07/04 07:17:34;;;;;;;10.15;4.85;;;20.20;99.90;;;;;;4968010;28;24909;-72
2022/07/04 07:20:00;;;;;;;11.15;4.88;;;20.40;99.90;;;;;;4968283;28;25059;-70
2022/07/04 07:22:26;;;;;;;16.85;5.10;;;20.50;99.90;;;;;;4966947;28;25115;-70
2022/07/04 07:24:52;;;;;;;9.48;4.60;;;20.60;99.90;;;;;;4969871;28;25121;-72
2022/07/04 07:27:18;;;;;;;13.30;5.15;;;20.90;99.90;;;;;;4972745;28;25092;-70
2022/07/04 07:29:43;;;;;;;13.20;5.20;;;20.90;99.90;;;;;;4975371;28;25105;-69
2022/07/04 07:32:09;;;;;;;9.88;5.00;;;21.00;99.90;;;;;;4962954;28;25066;-71
2022/07/04 07:34:35;;;;;;;13.80;5.05;;;21.40;99.90;;;;;;4967390;28;25086;-71
2022/07/04 07:37:01;;;;;;;9.82;4.18;;;21.50;99.90;;;;;;4968489;28;25070;-70
2022/07/04 07:39:27;;;;;;;10.23;4.65;;;21.50;99.90;;;;;;4967312;28;25065;-71
2022/07/04 07:41:53;;;;;;;10.07;4.47;;;21.40;99.90;;;;;;4967189;28;25052;-70
2022/07/04 07:44:18;;;;;;;13.13;5.80;;;21.30;99.90;;;;;;4963830;28;25091;-71
2022/07/04 07:46:44;;;;;;;11.35;5.72;;;21.30;99.90;;;;;;4974247;28;25140;-69
2022/07/04 07:49:09;;;;;;;18.20;6.03;;;21.10;99.90;;;;;;4973745;28;25063;-71
2022/07/04 07:51:35;;;;;;;8.82;4.07;;;21.30;99.90;;;;;;4973645;28;25079;-71
2022/07/04 07:54:01;;;;;;;10.95;4.70;;;21.10;99.90;;;;;;4977280;28;25048;-72
2022/07/04 07:56:27;;;;;;;13.70;4.90;;;21.50;99.90;;;;;;4989463;28;25072;-71
2022/07/04 07:58:53;;;;;;;12.85;5.10;;;21.70;99.90;;;;;;4977877;28;25139;-71
2022/07/04 08:01:20;;;;;;;8.60;4.45;;;21.80;99.90;;;;;;4975568;28;25080;-71
2022/07/04 08:06:30;;;;;;;11.77;3.78;;;21.90;99.90;;;;;;4963678;28;25143;-72
2022/07/04 08:08:55;;;;;;;9.52;3.78;;;22.20;99.90;;;;;;4969594;28;25070;-70
2022/07/04 08:11:21;;;;;;;10.60;3.72;;;22.10;99.90;;;;;;4990135;28;25051;-69
2022/07/04 08:13:47;;;;;;;8.07;3.63;;;22.20;99.90;;;;;;4983121;28;25069;-71
2022/07/04 08:16:12;;;;;;;6.88;3.10;;;22.20;99.90;;;;;;4974250;28;25092;-70
2022/07/04 08:18:38;;;;;;;10.85;4.22;;;22.20;99.90;;;;;;4966336;28;25121;-72
2022/07/04 08:21:04;;;;;;;6.60;3.70;;;22.10;99.90;;;;;;4963128;28;25158;-69
2022/07/04 08:23:31;;;;;;;8.93;4.43;;;22.10;99.90;;;;;;4970601;28;25061;-72
2022/07/04 08:25:57;;;;;;;10.52;3.97;;;22.00;99.90;;;;;;4967592;28;25063;-70
2022/07/04 08:28:23;;;;;;;9.57;4.25;;;21.50;99.90;;;;;;4977329;28;25071;-72
2022/07/04 08:30:49;;;;;;;7.15;4.28;;;21.90;99.90;;;;;;4975002;28;25135;-72
2022/07/04 08:33:15;;;;;;;10.23;4.75;;;22.10;99.90;;;;;;4987754;28;25058;-73
2022/07/04 08:35:41;;;;;;;12.80;4.78;;;21.80;99.90;;;;;;4970393;28;25103;-71
2022/07/04 08:38:06;;;;;;;10.05;4.05;;;21.30;99.90;;;;;;4977239;28;25059;-73
2022/07/04 08:40:33;;;;;;;9.50;3.67;;;21.40;99.90;;;;;;4965762;28;25154;-74
2022/07/04 08:43:02;;;;;;;6.47;3.58;;;21.70;99.90;;;;;;4968469;28;25089;-73
2022/07/04 08:45:30;;;;;;;7.03;3.55;;;22.00;99.90;;;;;;4966376;28;25049;-73
2022/07/04 08:48:01;;;;;;;9.55;3.90;;;22.50;99.90;;;;;;4966851;28;25131;-74
2022/07/04 08:50:29;;;;;;;7.60;2.65;;;22.40;99.90;;;;;;4966720;28;25111;-72
2022/07/04 08:53:03;;;;;;;7.25;2.80;;;22.20;99.90;;;;;;4969271;28;25070;-73
2022/07/04 08:58:25;;;;;;;10.13;2.97;;;21.90;99.90;;;;;;4971374;28;25063;-73
2022/07/04 09:00:58;;;;;;;13.20;3.22;;;21.90;99.90;;;;;;4974058;28;25113;-72
2022/07/04 09:03:26;;;;;;;9.07;2.90;;;21.60;99.90;;;;;;4972159;28;25102;-73
2022/07/04 09:05:52;;;;;;;7.35;3.05;;;21.90;99.90;;;;;;4973966;28;25108;-74
2022/07/04 09:08:18;;;;;;;6.20;2.67;;;22.00;99.90;;;;;;4974800;28;25098;-73
2022/07/04 09:10:45;;;;;;;8.27;2.65;;;22.50;99.90;;;;;;4973915;28;25060;-73
2022/07/04 09:13:14;;;;;;;9.07;3.50;;;22.60;99.90;;;;;;4978682;28;25223;-73
2022/07/04 09:15:42;;;;;;;6.85;3.95;;;22.30;99.90;;;;;;4969055;28;25076;-74
2022/07/04 09:18:28;;;;;;;10.95;3.88;;;21.80;99.90;;;;;;4969867;28;25155;-73
2022/07/04 09:20:56;;;;;;;10.25;3.38;;;21.60;99.90;;;;;;4980115;28;25098;-72
2022/07/04 09:23:25;;;;;;;13.55;3.42;;;21.70;99.90;;;;;;4970819;28;25049;-72
2022/07/04 09:26:10;;;;;;;6.70;2.58;;;21.40;99.90;;;;;;4970882;28;25095;-73
2022/07/04 09:28:37;;;;;;;5.45;2.80;;;21.40;99.90;;;;;;4969015;28;25087;-73
2022/07/04 09:31:13;;;;;;;5.20;2.45;;;21.20;99.90;;;;;;4969161;28;25165;-74
2022/07/04 09:33:58;;;;;;;7.60;3.00;;;21.20;99.90;;;;;;4969395;28;25085;-76
2022/07/04 09:36:26;;;;;;;10.70;7.95;;;21.30;99.90;;;;;;4950030;28;25069;-75
2022/07/04 09:39:14;;;;;;;5.45;2.88;;;21.30;99.90;;;;;;4967738;28;25061;-74
2022/07/04 09:42:09;;;;;;;9.35;3.03;;;21.10;99.90;;;;;;4966984;28;25062;-74
2022/07/04 09:44:45;;;;;;;6.10;3.05;;;21.00;99.90;;;;;;4957276;28;25138;-73
2022/07/04 09:47:25;;;;;;;5.68;2.95;;;20.70;99.90;;;;;;4966257;28;25068;-73
2022/07/04 09:50:09;;;;;;;9.30;2.97;;;20.50;99.90;;;;;;4960517;28;25074;-73
2022/07/04 09:52:47;;;;;;;11.70;3.30;;;20.60;99.90;;;;;;4959505;28;25098;-73
2022/07/04 09:55:19;;;;;;;8.05;3.30;;;20.50;99.90;;;;;;4982368;28;25057;-74
2022/07/04 09:57:45;;;;;;;6.28;3.35;;;20.50;99.90;;;;;;4979134;28;25167;-72
2022/07/04 10:00:26;;;;;;;8.27;2.63;;;20.50;99.90;;;;;;4980504;28;25054;-73
2022/07/04 10:02:53;;;;;;;5.13;2.28;;;20.60;99.90;;;;;;4980180;28;25068;-73
2022/07/04 10:05:26;;;;;;;4.28;2.28;;;20.70;99.90;;;;;;4981799;28;25086;-73
2022/07/04 10:07:57;;;;;;;3.97;2.45;;;20.80;99.90;;;;;;4979741;28;25075;-73
2022/07/04 10:10:34;;;;;;;8.32;2.95;;;21.50;99.90;;;;;;4978751;28;25053;-73
2022/07/04 10:13:07;;;;;;;5.80;2.67;;;22.30;99.90;;;;;;4971893;28;25096;-73
2022/07/04 10:15:37;;;;;;;3.65;2.08;;;22.60;99.90;;;;;;4973377;28;25081;-73
2022/07/04 10:18:03;;;;;;;6.43;2.60;;;23.30;99.90;;;;;;4964553;28;25096;-73
2022/07/04 10:20:29;;;;;;;7.95;2.28;;;23.40;99.90;;;;;;4978559;28;25063;-72
2022/07/04 10:22:56;;;;;;;4.32;1.50;;;23.00;99.90;;;;;;4975162;28;25053;-72
2022/07/04 10:25:22;;;;;;;2.78;1.30;;;22.80;99.90;;;;;;4983140;28;25122;-73
2022/07/04 10:27:51;;;;;;;1.48;1.38;;;22.90;99.90;;;;;;4979562;28;25073;-72
2022/07/04 10:30:40;;;;;;;3.05;1.25;;;22.70;99.90;;;;;;4978888;28;25044;-74
2022/07/04 10:33:08;;;;;;;2.28;1.15;;;23.20;99.90;;;;;;4971487;28;25064;-73
2022/07/04 10:36:03;;;;;;;4.50;1.25;;;23.20;99.40;;;;;;4981593;28;25063;-73
2022/07/04 10:38:34;;;;;;;3.90;1.73;;;22.70;98.00;;;;;;4988483;28;25084;-74
2022/07/04 10:41:07;;;;;;;2.25;1.40;;;22.50;99.90;;;;;;4988655;28;25065;-71
2022/07/04 10:43:42;;;;;;;7.05;1.90;;;22.70;99.90;;;;;;4976545;28;25116;-74
2022/07/04 10:46:14;;;;;;;3.42;1.50;;;23.20;99.90;;;;;;4978365;28;25064;-73
2022/07/04 10:48:53;;;;;;;1.77;1.40;;;23.70;96.70;;;;;;4994816;28;25106;-71
2022/07/04 10:51:42;;;;;;;4.28;1.60;;;23.70;97.80;;;;;;4975496;28;25068;-74
2022/07/04 10:54:13;;;;;;;6.82;1.42;;;23.40;96.40;;;;;;4979674;28;25114;-72
2022/07/04 10:56:52;;;;;;;2.72;1.30;;;23.70;96.90;;;;;;4979306;28;25128;-72
2022/07/04 10:59:29;;;;;;;5.07;2.03;;;24.20;85.80;;;;;;4968385;28;25069;-73
2022/07/04 11:02:18;;;;;;;3.05;1.25;;;23.30;85.40;;;;;;4971952;28;25092;-73
2022/07/04 11:04:47;;;;;;;4.38;1.42;;;23.90;81.90;;;;;;4972951;28;25074;-74
2022/07/04 11:07:18;;;;;;;2.65;1.00;;;24.10;79.20;;;;;;4975622;28;25062;-74
2022/07/04 11:09:44;;;;;;;4.25;1.25;;;24.50;77.60;;;;;;4961352;28;25080;-72
2022/07/04 11:12:13;;;;;;;2.88;1.08;;;24.40;82.60;;;;;;4976662;28;25070;-73
2022/07/04 11:14:47;;;;;;;2.55;1.08;;;24.60;83.10;;;;;;4969784;28;25094;-73
2022/07/04 11:17:15;;;;;;;1.08;0.98;;;23.90;84.80;;;;;;4965952;28;25137;-73
2022/07/04 11:19:41;;;;;;;5.30;1.38;;;23.50;83.80;;;;;;4970535;28;25095;-73
2022/07/04 11:22:10;;;;;;;1.20;1.10;;;23.20;90.40;;;;;;4967621;28;25071;-73
2022/07/04 11:24:36;;;;;;;3.95;1.00;;;23.30;88.70;;;;;;4969705;28;25132;-73
2022/07/04 11:27:03;;;;;;;3.60;1.20;;;23.30;86.60;;;;;;4977807;28;25056;-73
2022/07/04 11:29:29;;;;;;;2.65;1.58;;;23.80;85.70;;;;;;4976597;28;25082;-71
2022/07/04 11:31:56;;;;;;;2.40;0.82;;;23.40;82.00;;;;;;4975416;28;25149;-72
2022/07/04 11:34:23;;;;;;;6.13;1.08;;;23.60;83.80;;;;;;4969607;28;25077;-73
2022/07/04 11:36:51;;;;;;;3.75;1.20;;;24.10;69.80;;;;;;4973856;28;25065;-73
2022/07/04 11:39:19;;;;;;;4.28;0.98;;;24.40;60.90;;;;;;4974695;28;25055;-72
2022/07/04 11:47:40;;;;;;;1.63;1.02;;;23.80;67.80;;;;;;4970351;28;25070;-72
2022/07/04 11:50:09;;;;;;;3.38;1.20;;;24.10;77.50;;;;;;4981784;28;25091;-73
2022/07/04 11:52:37;;;;;;;2.00;1.20;;;24.20;71.30;;;;;;4975952;28;25090;-71
2022/07/04 11:55:08;;;;;;;2.00;0.98;;;24.90;64.90;;;;;;4969920;28;25083;-72
2022/07/04 11:57:35;;;;;;;1.92;1.00;;;25.00;60.30;;;;;;4970147;28;25057;-72
2022/07/04 12:00:09;;;;;;;3.70;1.13;;;24.90;52.70;;;;;;4952458;28;25075;-71
2022/07/04 12:02:35;;;;;;;3.40;1.50;;;24.10;53.20;;;;;;4970080;28;25140;-72
2022/07/04 12:05:03;;;;;;;9.48;2.05;;;23.70;74.00;;;;;;4970141;28;25145;-72
2022/07/04 12:07:34;;;;;;;2.83;1.55;;;24.20;69.30;;;;;;4966787;28;25151;-71
2022/07/04 12:10:14;;;;;;;5.60;1.30;;;24.60;46.00;;;;;;4968617;28;25086;-72
2022/07/04 12:12:59;;;;;;;1.67;0.93;;;24.80;29.60;;;;;;4975239;28;25098;-72
2022/07/04 12:15:43;;;;;;;3.05;1.45;;;24.90;34.40;;;;;;4970732;28;25133;-72
2022/07/04 12:18:21;;;;;;;4.32;0.90;;;24.90;35.00;;;;;;4978343;28;25181;-74
2022/07/04 12:20:53;;;;;;;3.17;0.90;;;24.40;40.30;;;;;;4973039;28;25081;-73
2022/07/04 12:23:19;;;;;;;;;;;24.60;35.70;;;;;;4970296;28;25129;-73
2022/07/04 12:25:51;;;;;;;2.58;0.68;;;24.70;33.90;;;;;;4971650;28;25089;-75
2022/07/04 12:28:18;;;;;;;1.83;1.00;;;24.90;33.90;;;;;;4970854;28;25071;-71
2022/07/04 12:30:57;;;;;;;4.53;1.50;;;24.60;49.50;;;;;;4970090;28;25085;-72
2022/07/04 12:33:25;;;;;;;6.55;1.38;;;24.50;35.50;;;;;;4967484;28;25100;-73
2022/07/04 12:35:54;;;;;;;1.70;1.00;;;24.40;33.30;;;;;;4967962;28;25128;-71
2022/07/04 12:38:28;;;;;;;1.08;0.73;;;24.80;44.20;;;;;;4963419;28;25122;-72
2022/07/04 12:40:54;;;;;;;2.55;0.85;;;25.10;35.30;;;;;;4971212;28;25061;-72
2022/07/04 12:43:24;;;;;;;2.28;0.98;;;25.00;25.80;;;;;;4969402;28;25072;-72
2022/07/04 12:45:55;;;;;;;3.97;1.00;;;24.70;28.20;;;;;;4968081;28;25065;-73
2022/07/04 12:48:29;;;;;;;1.27;0.80;;;24.60;24.30;;;;;;4964938;28;25067;-72
2022/07/04 12:51:09;;;;;;;2.53;0.90;;;24.60;37.80;;;;;;4969394;28;25052;-71
2022/07/04 12:53:39;;;;;;;3.13;1.33;;;23.90;42.90;;;;;;4969825;28;25111;-73
2022/07/04 12:56:05;;;;;;;3.38;0.90;;;24.10;50.00;;;;;;4973716;28;25054;-72
2022/07/04 12:58:31;;;;;;;7.97;1.00;;;24.40;48.40;;;;;;4975876;28;25139;-68
2022/07/04 13:00:56;;;;;;;2.58;0.95;;;24.30;38.90;;;;;;4978943;28;25069;-71
2022/07/04 13:03:23;;;;;;;2.20;0.90;;;24.40;45.10;;;;;;4980376;28;25012;-70
2022/07/04 13:05:48;;;;;;;3.17;1.25;;;23.80;32.30;;;;;;4981226;28;25091;-72
2022/07/04 13:08:14;;;;;;;7.53;1.67;;;23.50;42.00;;;;;;4970658;28;25130;-69